createdAt,value
2022-10-12T00:01:20.778Z,99962.56
2022-10-12T00:03:48.252Z,99959.81
2022-10-12T00:06:21.494Z,99963.72
2022-10-12T00:08:50.494Z,99965.19
2022-10-12T00:11:25.744Z,99962.75
2022-10-12T00:13:53.145Z,99963.22
2022-10-12T00:16:22.233Z,99963.56
2022-10-12T00:18:56.626Z,99949.75
2022-10-12T00:21:25.381Z,99967.34
2022-10-12T00:23:52.346Z,99969.63
2022-10-12T00:26:21.825Z,99962.44
2022-10-12T00:28:53.834Z,99958.38
2022-10-12T00:31:21.254Z,99957.91
2022-10-12T00:33:49.340Z,99957.91
2022-10-12T00:36:28.294Z,99962.13
2022-10-12T00:38:57.297Z,99962.13
2022-10-12T00:41:27.822Z,99955.63
2022-10-12T00:43:58.154Z,99957.09
2022-10-12T00:46:45.235Z,99952.84
2022-10-12T00:49:19.309Z,99953.66
2022-10-12T00:51:51.424Z,99959.19
2022-10-12T00:54:24.782Z,99953.66
2022-10-12T00:56:54.416Z,99952.03
2022-10-12T00:59:28.617Z,99954.31
2022-10-12T01:01:56.394Z,99949.25
2022-10-12T01:04:24.247Z,99950.25
2022-10-12T01:06:52.221Z,99949.44
2022-10-12T01:09:20.865Z,99950.25
2022-10-12T01:11:48.219Z,99924.66
2022-10-12T01:14:15.790Z,99933.31
2022-10-12T01:17:00.678Z,99939.16
2022-10-12T01:19:46.067Z,99942.09
2022-10-12T01:22:19.053Z,99942.88
2022-10-12T01:25:00.275Z,99942.22
2022-10-12T01:28:09.535Z,99940.44
2022-10-12T01:30:42.420Z,99940.25
2022-10-12T01:33:27.698Z,99936.34
2022-10-12T01:35:58.487Z,99946.78
2022-10-12T01:38:43.547Z,99944.50
2022-10-12T01:41:19.272Z,99941.09
2022-10-12T01:43:46.804Z,99939.63
2022-10-12T01:46:16.513Z,99943.53
2022-10-12T01:48:54.303Z,99939.94
2022-10-12T01:51:41.622Z,99936.19
2022-10-12T01:54:39.931Z,99933.75
2022-10-12T01:57:28.834Z,99943.50
2022-10-12T02:00:09.482Z,99949.03
2022-10-12T02:02:49.717Z,99918.41
2022-10-12T02:05:45.228Z,99947.41
2022-10-12T02:08:26.509Z,99951.00
2022-10-12T02:11:13.530Z,99956.19
2022-10-12T02:13:45.905Z,99956.03
2022-10-12T02:16:17.350Z,99957.81
2022-10-12T02:18:45.820Z,99953.88
2022-10-12T02:21:16.193Z,99956.97
2022-10-12T02:23:45.737Z,99947.34
2022-10-12T02:26:14.994Z,99949.97
2022-10-12T02:28:44.639Z,99945.72
2022-10-12T02:31:35.072Z,99957.63
2022-10-12T02:34:14.647Z,99961.88
2022-10-12T02:37:21.353Z,99971.00
2022-10-12T02:39:54.715Z,99961.22
2022-10-12T02:42:46.658Z,99956.50
2022-10-12T02:45:22.845Z,99967.09
2022-10-12T02:47:53.167Z,99978.31
2022-10-12T02:50:22.695Z,99970.34
2022-10-12T02:52:50.421Z,99976.06
2022-10-12T02:55:17.733Z,99967.91
2022-10-12T02:57:44.479Z,99971.16
2022-10-12T03:00:12.103Z,99967.59
2022-10-12T03:02:39.061Z,99975.88
2022-10-12T03:05:06.332Z,99971.00
2022-10-12T03:07:33.155Z,99966.56
2022-10-12T03:10:00.009Z,99964.78
2022-10-12T03:12:26.933Z,99977.97
2022-10-12T03:14:53.842Z,99969.81
2022-10-12T03:17:20.779Z,99980.25
2022-10-12T03:19:47.655Z,99968.69
2022-10-12T03:22:14.493Z,99968.84
2022-10-12T03:24:41.564Z,99974.72
2022-10-12T03:27:08.414Z,99974.72
2022-10-12T03:29:35.286Z,99969.00
2022-10-12T03:32:02.074Z,99962.03
2022-10-12T03:34:29.001Z,99970.31
2022-10-12T03:36:55.802Z,99972.75
2022-10-12T03:39:22.951Z,99979.59
2022-10-12T03:41:49.713Z,99983.16
2022-10-12T03:44:16.635Z,99980.41
2022-10-12T03:46:43.453Z,99978.44
2022-10-12T03:49:10.373Z,99978.94
2022-10-12T03:51:37.301Z,99985.28
2022-10-12T03:54:04.349Z,99989.19
2022-10-12T03:56:31.217Z,99983.97
2022-10-12T03:58:58.152Z,99986.75
2022-10-12T04:01:25.950Z,99979.91
2022-10-12T04:03:52.882Z,99979.72
2022-10-12T04:06:19.717Z,99972.06
2022-10-12T04:08:50.605Z,99980.69
2022-10-12T04:11:20.349Z,99983.28
2022-10-12T04:13:47.432Z,99988.16
2022-10-12T04:16:14.428Z,99988.16
2022-10-12T04:18:41.316Z,99992.53
2022-10-12T04:21:12.328Z,99993.81
2022-10-12T04:23:39.417Z,99995.44
2022-10-12T04:26:06.723Z,99996.25
2022-10-12T04:28:33.943Z,99994.94
2022-10-12T04:31:00.912Z,100004.84
2022-10-12T04:33:27.849Z,99994.44
2022-10-12T04:35:54.749Z,100000.78
2022-10-12T04:38:21.735Z,99993.81
2022-10-12T04:40:49.398Z,100000.31
2022-10-12T04:43:17.721Z,99997.25
2022-10-12T04:45:45.035Z,99977.97
2022-10-12T04:48:11.846Z,99993.31
2022-10-12T04:50:38.842Z,100006.34
2022-10-12T04:53:06.073Z,100009.13
2022-10-12T04:55:32.971Z,100013.03
2022-10-12T04:58:00.889Z,100026.88
2022-10-12T05:00:27.826Z,100024.44
2022-10-12T05:02:54.726Z,100017.72
2022-10-12T05:05:21.814Z,100032.88
2022-10-12T05:07:48.756Z,100024.91
2022-10-12T05:10:15.825Z,100015.28
2022-10-12T05:12:43.110Z,100033.81
2022-10-12T05:15:11.039Z,100026.16
2022-10-12T05:17:38.420Z,100035.91
2022-10-12T05:20:06.200Z,100021.09
2022-10-12T05:22:33.179Z,100040.31
2022-10-12T05:25:00.227Z,100040.81
2022-10-12T05:27:27.249Z,100045.06
2022-10-12T05:29:54.228Z,100041.66
2022-10-12T05:32:21.251Z,100027.47
2022-10-12T05:34:48.634Z,100046.09
2022-10-12T05:37:15.623Z,100052.00
2022-10-12T05:39:42.469Z,100051.69
2022-10-12T05:42:09.435Z,100056.25
2022-10-12T05:44:36.309Z,100065.59
2022-10-12T05:47:03.425Z,100070.81
2022-10-12T05:49:31.051Z,100067.88
2022-10-12T05:51:57.923Z,100069.09
2022-10-12T05:54:24.857Z,100062.41
2022-10-12T05:56:51.893Z,100078.19
2022-10-12T05:59:18.911Z,100070.03
2022-10-12T06:01:45.820Z,100081.03
2022-10-12T06:04:13.066Z,100072.22
2022-10-12T06:06:39.906Z,100087.91
2022-10-12T06:09:07.003Z,100083.34
2022-10-12T06:11:36.400Z,100091.19
2022-10-12T06:14:04.044Z,100097.22
2022-10-12T06:16:30.904Z,100095.28
2022-10-12T06:18:57.861Z,100095.59
2022-10-12T06:21:39.990Z,100107.50
2022-10-12T06:24:07.231Z,100091.53
2022-10-12T06:26:34.139Z,100105.69
2022-10-12T06:29:02.417Z,100107.97
2022-10-12T06:31:29.661Z,100108.78
2022-10-12T06:33:56.581Z,100100.97
2022-10-12T06:36:23.986Z,100116.63
2022-10-12T06:38:51.108Z,100110.75
2022-10-12T06:41:18.123Z,100112.72
2022-10-12T06:43:45.195Z,100113.84
2022-10-12T06:46:12.178Z,100122.66
2022-10-12T06:48:39.291Z,100121.19
2022-10-12T06:51:06.440Z,100127.69
2022-10-12T06:53:35.018Z,100129.84
2022-10-12T06:56:11.569Z,100130.94
2022-10-12T06:58:39.620Z,100124.91
2022-10-12T07:01:10.406Z,100122.59
2022-10-12T07:03:37.778Z,100127.31
2022-10-12T07:06:15.065Z,100133.00
2022-10-12T07:08:42.600Z,100132.81
2022-10-12T07:11:12.774Z,100129.19
2022-10-12T07:13:39.885Z,100125.44
2022-10-12T07:16:07.949Z,100130.63
2022-10-12T07:18:34.980Z,100120.00
2022-10-12T07:21:03.022Z,100119.34
2022-10-12T07:23:31.980Z,100116.84
2022-10-12T07:25:58.918Z,100140.97
2022-10-12T07:28:27.047Z,100130.34
2022-10-12T07:30:54.184Z,100128.19
2022-10-12T07:33:21.031Z,100136.81
2022-10-12T07:36:22.123Z,100135.66
2022-10-12T07:38:47.124Z,100134.03
2022-10-12T07:41:15.110Z,100141.22
2022-10-12T07:43:43.151Z,100145.44
2022-10-12T07:46:10.650Z,100138.25
2022-10-12T07:48:38.017Z,100143.13
2022-10-12T07:51:10.030Z,100136.22
2022-10-12T07:53:38.658Z,100142.53
2022-10-12T07:56:15.051Z,100140.38
2022-10-12T07:58:56.763Z,100141.81
2022-10-12T08:01:26.613Z,100144.50
2022-10-12T08:03:58.749Z,100146.59
2022-10-12T08:06:31.202Z,100144.50
2022-10-12T08:08:59.781Z,100147.56
2022-10-12T08:11:27.670Z,100142.47
2022-10-12T08:13:56.123Z,100149.31
2022-10-12T08:16:23.986Z,100143.22
2022-10-12T08:18:51.163Z,100146.75
2022-10-12T08:21:18.474Z,100152.78
2022-10-12T08:23:46.160Z,100142.94
2022-10-12T08:26:14.687Z,100143.88
2022-10-12T08:28:42.372Z,100148.56
2022-10-12T08:31:12.741Z,100149.00
2022-10-12T08:33:39.884Z,100148.09
2022-10-12T08:36:08.249Z,100145.31
2022-10-12T08:38:39.008Z,100140.69
2022-10-12T08:41:36.847Z,100132.19
2022-10-12T08:44:28.282Z,100137.78
2022-10-12T08:46:58.229Z,100135.59
2022-10-12T08:49:28.398Z,100126.75
2022-10-12T08:51:57.822Z,100136.88
2022-10-12T08:54:29.572Z,100141.84
2022-10-12T08:56:57.993Z,100135.25
2022-10-12T08:59:26.564Z,100145.13
2022-10-12T09:02:02.290Z,100144.91
2022-10-12T09:04:35.034Z,100143.75
2022-10-12T09:07:17.067Z,100142.81
2022-10-12T09:09:56.159Z,100142.81
2022-10-12T09:12:50.785Z,100139.81
2022-10-12T09:15:23.166Z,100135.88
2022-10-12T09:17:55.229Z,100146.31
2022-10-12T09:20:30.882Z,100136.56
2022-10-12T09:23:21.594Z,100138.19
2022-10-12T09:25:50.258Z,100136.56
2022-10-12T09:28:33.660Z,100131.09
2022-10-12T09:31:21.027Z,100143.56
2022-10-12T09:33:54.167Z,100140.31
2022-10-12T09:36:23.547Z,100143.09
2022-10-12T09:38:51.186Z,100139.94
2022-10-12T09:41:24.901Z,100141.69
2022-10-12T09:43:56.826Z,100135.88
2022-10-12T09:46:40.133Z,100147.28
2022-10-12T09:49:07.181Z,100139.75
2022-10-12T09:51:34.355Z,100138.94
2022-10-12T09:54:03.805Z,100141.47
2022-10-12T09:56:57.228Z,100129.63
2022-10-12T09:59:29.486Z,100132.19
2022-10-12T10:02:05.042Z,100133.47
2022-10-12T10:04:32.291Z,100123.47
2022-10-12T10:07:18.296Z,100110.38
2022-10-12T10:09:46.087Z,100121.75
2022-10-12T10:12:14.988Z,100123.13
2022-10-12T10:14:45.701Z,100117.44
2022-10-12T10:17:36.500Z,100114.66
2022-10-12T10:20:06.231Z,100109.63
2022-10-12T10:22:33.652Z,100110.31
2022-10-12T10:25:01.275Z,100112.63
2022-10-12T10:27:37.941Z,100109.34
2022-10-12T10:30:29.941Z,100108.28
2022-10-12T10:33:16.025Z,100105.16
2022-10-12T10:35:56.578Z,100101.84
2022-10-12T10:38:24.228Z,100108.88
2022-10-12T10:40:52.693Z,100078.63
2022-10-12T10:43:31.853Z,100094.19
2022-10-12T10:46:02.693Z,100097.91
2022-10-12T10:48:53.373Z,100083.84
2022-10-12T10:51:20.508Z,100091.16
2022-10-12T10:53:49.634Z,100086.13
2022-10-12T10:56:26.727Z,100087.28
2022-10-12T10:59:09.045Z,100079.81
2022-10-12T11:01:46.314Z,100060.06
2022-10-12T11:04:32.845Z,100075.03
2022-10-12T11:07:17.080Z,100068.56
2022-10-12T11:09:48.638Z,100073.69
2022-10-12T11:12:30.326Z,100067.47
2022-10-12T11:15:20.088Z,100048.00
2022-10-12T11:17:50.908Z,100060.91
2022-10-12T11:20:19.909Z,100066.59
2022-10-12T11:23:23.396Z,100064.63
2022-10-12T11:25:56.045Z,100059.94
2022-10-12T11:28:28.517Z,100063.63
2022-10-12T11:30:55.822Z,100055.63
2022-10-12T11:33:29.291Z,100045.03
2022-10-12T11:35:58.835Z,100048.75
2022-10-12T11:38:51.356Z,100053.06
2022-10-12T11:41:48.458Z,100051.16
2022-10-12T11:44:25.352Z,100030.41
2022-10-12T11:47:12.149Z,100039.72
2022-10-12T11:49:52.073Z,100035.75
2022-10-12T11:52:22.926Z,100039.16
2022-10-12T11:55:08.720Z,100032.84
2022-10-12T11:57:38.183Z,100032.56
2022-10-12T12:00:18.392Z,100039.16
2022-10-12T12:03:00.979Z,100032.41
2022-10-12T12:05:32.630Z,100034.22
2022-10-12T12:07:59.573Z,100036.47
2022-10-12T12:10:35.218Z,100033.50
2022-10-12T12:13:14.819Z,100032.41
2022-10-12T12:15:52.352Z,100017.97
2022-10-12T12:18:22.787Z,100030.63
2022-10-12T12:20:49.539Z,100030.34
2022-10-12T12:23:27.839Z,100032.84
2022-10-12T12:26:14.639Z,100027.66
2022-10-12T12:28:45.263Z,100034.16
2022-10-12T12:31:26.831Z,100033.91
2022-10-12T12:34:12.412Z,100022.34
2022-10-12T12:36:44.914Z,100033.53
2022-10-12T12:39:34.993Z,100023.84
2022-10-12T12:42:04.881Z,100024.19
2022-10-12T12:44:36.846Z,100024.41
2022-10-12T12:47:08.593Z,100023.16
2022-10-12T12:49:57.452Z,100006.53
2022-10-12T12:52:24.346Z,100015.66
2022-10-12T12:55:09.290Z,100014.75
2022-10-12T12:57:36.266Z,100020.28
2022-10-12T13:00:13.257Z,100017.72
2022-10-12T13:03:01.427Z,100017.28
2022-10-12T13:05:28.325Z,100008.50
2022-10-12T13:08:23.401Z,100002.56
2022-10-12T13:11:02.251Z,100009.91
2022-10-12T13:13:47.549Z,100010.66
2022-10-12T13:17:30.151Z,100014.03
2022-10-12T13:19:23.602Z,100010.50
2022-10-12T13:21:54.663Z,100005.19
2022-10-12T13:24:30.437Z,99999.31
2022-10-12T13:27:14.309Z,100004.16
2022-10-12T13:29:48.989Z,100009.03
2022-10-12T13:32:34.604Z,100008.16
2022-10-12T13:35:10.491Z,100007.72
2022-10-12T13:37:37.754Z,100002.56
2022-10-12T13:40:05.212Z,100006.16
2022-10-12T13:42:35.942Z,100004.97
2022-10-12T13:45:07.996Z,99999.00
2022-10-12T13:47:43.089Z,100003.44
2022-10-12T13:50:20.722Z,100007.34
2022-10-12T13:52:54.466Z,100009.19
2022-10-12T13:55:26.484Z,100010.50
2022-10-12T13:57:53.966Z,100005.06
2022-10-12T14:00:25.665Z,99999.81
2022-10-12T14:02:58.830Z,100018.31
2022-10-12T14:05:28.164Z,100016.25
2022-10-12T14:08:00.465Z,100019.69
2022-10-12T14:10:36.330Z,100004.84
2022-10-12T14:13:05.203Z,100013.31
2022-10-12T14:15:39.052Z,100009.84
2022-10-12T14:18:37.833Z,100010.47
2022-10-12T14:21:18.442Z,100008.25
2022-10-12T14:23:51.950Z,100013.41
2022-10-12T14:26:34.327Z,100009.22
2022-10-12T14:29:34.811Z,100008.41
2022-10-12T14:32:26.486Z,100004.19
2022-10-12T14:35:20.872Z,100010.06
2022-10-12T14:37:48.983Z,100007.09
2022-10-12T14:40:30.438Z,100020.25
2022-10-12T14:43:19.841Z,100020.28
2022-10-12T14:45:46.879Z,100021.09
2022-10-12T14:48:19.975Z,100024.88
2022-10-12T14:50:47.013Z,100021.56
2022-10-12T14:53:14.905Z,100029.47
2022-10-12T14:55:43.154Z,100021.81
2022-10-12T14:58:17.456Z,100016.94
2022-10-12T15:00:45.130Z,100024.25
2022-10-12T15:03:12.300Z,100030.44
2022-10-12T15:05:41.882Z,100022.81
2022-10-12T15:08:09.656Z,100021.81
2022-10-12T15:10:37.482Z,100027.84
2022-10-12T15:13:04.621Z,100027.13
2022-10-12T15:15:39.508Z,100035.66
2022-10-12T15:18:06.801Z,100030.78
2022-10-12T15:20:34.677Z,100046.59
2022-10-12T15:23:03.103Z,100038.13
2022-10-12T15:25:45.236Z,100040.72
2022-10-12T15:28:12.388Z,100040.03
2022-10-12T15:30:47.475Z,100039.00
2022-10-12T15:33:19.423Z,100039.59
2022-10-12T15:35:46.187Z,100048.66
2022-10-12T15:38:14.365Z,100041.81
2022-10-12T15:40:43.859Z,100041.84
2022-10-12T15:43:11.512Z,100051.50
2022-10-12T15:45:39.763Z,100032.94
2022-10-12T15:48:08.735Z,100049.53
2022-10-12T15:50:44.712Z,100058.22
2022-10-12T15:53:16.839Z,100060.78
2022-10-12T15:55:43.715Z,100058.56
2022-10-12T15:58:10.546Z,100043.94
2022-10-12T16:00:37.506Z,100047.66
2022-10-12T16:03:04.681Z,100059.25
2022-10-12T16:05:35.589Z,100062.47
2022-10-12T16:08:05.340Z,100050.31
2022-10-12T16:10:37.134Z,100058.56
2022-10-12T16:13:06.708Z,100062.84
2022-10-12T16:15:35.723Z,100068.59
2022-10-12T16:18:04.848Z,100075.66
2022-10-12T16:20:34.512Z,100069.50
2022-10-12T16:23:01.517Z,100071.13
2022-10-12T16:25:34.663Z,100085.50
2022-10-12T16:28:04.991Z,100072.63
2022-10-12T16:30:32.458Z,100081.44
2022-10-12T16:33:00.369Z,100076.56
2022-10-12T16:35:27.515Z,100067.59
2022-10-12T16:37:54.366Z,100072.22
2022-10-12T16:40:21.398Z,100072.09
2022-10-12T16:42:54.772Z,100076.03
2022-10-12T16:45:23.771Z,100085.41
2022-10-12T16:47:50.700Z,100083.66
2022-10-12T16:50:19.141Z,100082.84
2022-10-12T16:52:46.512Z,100059.66
2022-10-12T16:55:14.353Z,100073.22
2022-10-12T16:57:41.432Z,100083.72
2022-10-12T17:00:11.769Z,100084.75
2022-10-12T17:02:57.505Z,100082.84
2022-10-12T17:05:25.040Z,100083.66
2022-10-12T17:07:51.903Z,100078.00
2022-10-12T17:10:18.804Z,100084.03
2022-10-12T17:12:45.869Z,100078.00
2022-10-12T17:15:12.658Z,100074.47
2022-10-12T17:17:39.570Z,100080.84
2022-10-12T17:20:06.941Z,100083.00
2022-10-12T17:22:34.845Z,100073.59
2022-10-12T17:25:01.919Z,100071.50
2022-10-12T17:27:32.140Z,100077.53
2022-10-12T17:29:59.654Z,100077.38
2022-10-12T17:32:29.303Z,100084.56
2022-10-12T17:34:56.438Z,100075.13
2022-10-12T17:37:23.352Z,100073.53
2022-10-12T17:39:50.496Z,100076.84
2022-10-12T17:42:18.235Z,100078.47
2022-10-12T17:44:45.557Z,100091.06
2022-10-12T17:47:12.468Z,100087.81
2022-10-12T17:49:42.951Z,100063.72
2022-10-12T17:52:09.867Z,100083.47
2022-10-12T17:54:36.830Z,100088.06
2022-10-12T17:57:04.641Z,100082.56
2022-10-12T17:59:31.852Z,100080.66
2022-10-12T18:01:59.195Z,100092.09
2022-10-12T18:04:26.112Z,100079.69
2022-10-12T18:06:53.341Z,100077.91
2022-10-12T18:09:20.207Z,100085.44
2022-10-12T18:11:47.180Z,100089.03
2022-10-12T18:14:14.294Z,100081.69
2022-10-12T18:16:41.546Z,100079.72
2022-10-12T18:19:11.395Z,100098.34
2022-10-12T18:21:38.825Z,100090.69
2022-10-12T18:24:16.025Z,100082.53
2022-10-12T18:26:47.410Z,100086.31
2022-10-12T18:29:18.048Z,100082.06
2022-10-12T18:31:45.103Z,100091.53
2022-10-12T18:34:11.989Z,100086.66
2022-10-12T18:36:40.123Z,100077.06
2022-10-12T18:39:07.192Z,100082.91
2022-10-12T18:41:34.174Z,100090.09
2022-10-12T18:44:02.584Z,100087.78
2022-10-12T18:46:32.475Z,100084.72
2022-10-12T18:49:02.910Z,100087.31
2022-10-12T18:51:32.868Z,100082.41
2022-10-12T18:54:00.611Z,100092.22
2022-10-12T18:56:28.467Z,100096.16
2022-10-12T18:58:57.341Z,100094.38
2022-10-12T19:01:26.631Z,100080.16
2022-10-12T19:03:55.521Z,100080.00
2022-10-12T19:06:25.414Z,100092.72
2022-10-12T19:08:55.003Z,100051.38
2022-10-12T19:11:23.193Z,100100.56
2022-10-12T19:14:02.255Z,100097.16
2022-10-12T19:16:30.445Z,100092.13
2022-10-12T19:18:59.963Z,100088.38
2022-10-12T19:21:27.600Z,100096.03
2022-10-12T19:23:54.871Z,100095.88
2022-10-12T19:26:25.174Z,100090.19
2022-10-12T19:28:54.676Z,100093.13
2022-10-12T19:31:28.350Z,100092.78
2022-10-12T19:34:00.754Z,100080.56
2022-10-12T19:36:28.780Z,100097.03
2022-10-12T19:39:00.733Z,100086.09
2022-10-12T19:41:28.846Z,100087.25
2022-10-12T19:43:57.583Z,100084.31
2022-10-12T19:46:25.020Z,100079.75
2022-10-12T19:48:53.937Z,100076.34
2022-10-12T19:51:22.266Z,100093.63
2022-10-12T19:53:54.124Z,100103.25
2022-10-12T19:56:21.429Z,100092.50
2022-10-12T19:58:50.344Z,100101.63
2022-10-12T20:01:20.722Z,100095.75
2022-10-12T20:03:50.066Z,100103.59
2022-10-12T20:06:18.142Z,100099.19
2022-10-12T20:08:46.043Z,100097.56
2022-10-12T20:11:18.458Z,100094.28
2022-10-12T20:13:48.369Z,100050.47
2022-10-12T20:16:17.677Z,100103.41
2022-10-12T20:18:45.059Z,100091.34
2022-10-12T20:21:14.741Z,100101.13
2022-10-12T20:23:43.218Z,100099.34
2022-10-12T20:26:14.856Z,100102.09
2022-10-12T20:28:41.831Z,100103.91
2022-10-12T20:31:08.807Z,100094.94
2022-10-12T20:33:37.328Z,100097.19
2022-10-12T20:36:09.153Z,100089.09
2022-10-12T20:38:37.668Z,100082.88
2022-10-12T20:41:12.613Z,100099.03
2022-10-12T20:43:40.621Z,100100.81
2022-10-12T20:46:10.569Z,100107.81
2022-10-12T20:48:39.994Z,100103.09
2022-10-12T20:51:08.949Z,100104.88
2022-10-12T20:53:36.503Z,100106.03
2022-10-12T20:56:06.319Z,100109.44
2022-10-12T20:58:33.591Z,100114.81
2022-10-12T21:01:06.256Z,100100.31
2022-10-12T21:03:33.817Z,100108.13
2022-10-12T21:06:05.839Z,100111.38
2022-10-12T21:08:33.255Z,100110.25
2022-10-12T21:11:00.598Z,100106.50
2022-10-12T21:13:30.972Z,100102.59
2022-10-12T21:15:58.585Z,100118.38
2022-10-12T21:18:26.705Z,100100.78
2022-10-12T21:21:11.737Z,100119.19
2022-10-12T21:23:42.878Z,100113.16
2022-10-12T21:26:14.908Z,100116.88
2022-10-12T21:28:41.974Z,100119.97
2022-10-12T21:31:09.140Z,100124.88
2022-10-12T21:33:37.965Z,100134.31
2022-10-12T21:36:13.938Z,100127.59
2022-10-12T21:38:42.236Z,100121.53
2022-10-12T21:41:11.082Z,100130.38
2022-10-12T21:43:39.846Z,100121.03
2022-10-12T21:46:16.602Z,100127.41
2022-10-12T21:48:43.483Z,100118.91
2022-10-12T21:51:10.737Z,100123.19
2022-10-12T21:53:38.478Z,100133.16
2022-10-12T21:56:10.286Z,100116.78
2022-10-12T21:58:37.367Z,100125.25
2022-10-12T22:01:21.941Z,100124.41
2022-10-12T22:03:56.377Z,100113.81
2022-10-12T22:06:25.137Z,100117.06
2022-10-12T22:08:55.200Z,100113.94
2022-10-12T22:11:22.272Z,100116.88
2022-10-12T22:13:49.301Z,100106.97
2022-10-12T22:16:18.468Z,100110.38
2022-10-12T22:18:46.029Z,100108.59
2022-10-12T22:21:15.520Z,100114.28
2022-10-12T22:23:43.614Z,100093.91
2022-10-12T22:26:19.154Z,100102.06
2022-10-12T22:28:53.346Z,100113.13
2022-10-12T22:31:22.358Z,100109.22
2022-10-12T22:33:49.306Z,100099.63
2022-10-12T22:36:16.493Z,100106.50
2022-10-12T22:38:43.887Z,100104.53
2022-10-12T22:41:16.707Z,100109.94
2022-10-12T22:43:50.488Z,100104.41
2022-10-12T22:46:18.691Z,100092.97
2022-10-12T22:48:46.189Z,100101.59
2022-10-12T22:51:18.493Z,100098.03
2022-10-12T22:53:45.663Z,100092.94
2022-10-12T22:56:18.138Z,100080.56
2022-10-12T22:58:48.503Z,100097.84
2022-10-12T23:01:17.508Z,100106.16
2022-10-12T23:03:45.506Z,100093.94
2022-10-12T23:06:15.299Z,100088.09
2022-10-12T23:08:42.765Z,100093.94
2022-10-12T23:11:16.299Z,100098.84
2022-10-12T23:13:43.609Z,100093.94
2022-10-12T23:16:15.902Z,100092.63
2022-10-12T23:18:43.243Z,100096.53
2022-10-12T23:21:13.498Z,100100.13
2022-10-12T23:23:41.412Z,100074.72
2022-10-12T23:26:16.936Z,100087.13
2022-10-12T23:28:44.791Z,100100.00
2022-10-12T23:31:19.360Z,100094.94
2022-10-12T23:33:46.584Z,100102.75
2022-10-12T23:36:16.418Z,100093.63
2022-10-12T23:38:44.798Z,100091.16
2022-10-12T23:41:13.103Z,100083.97
2022-10-12T23:43:40.515Z,100099.28
2022-10-12T23:46:07.918Z,100097.97
2022-10-12T23:48:35.074Z,100098.28
2022-10-12T23:51:02.012Z,100094.72
2022-10-12T23:53:29.060Z,100091.63
2022-10-12T23:55:56.393Z,100080.38
2022-10-12T23:58:23.329Z,100088.19
